sensor_id;sensor_type;location;lat;lon;timestamp;temperature;humidity
2042;DHT22;1026;51.460;7.252;2023-06-10T00:01:41;21.30;83.90
2042;DHT22;1026;51.460;7.252;2023-06-10T00:04:07;21.30;83.90
2042;DHT22;1026;51.460;7.252;2023-06-10T00:06:32;21.30;83.80
2042;DHT22;1026;51.460;7.252;2023-06-10T00:09:02;21.30;83.70
2042;DHT22;1026;51.460;7.252;2023-06-10T00:11:28;21.30;83.70
2042;DHT22;1026;51.460;7.252;2023-06-10T00:13:53;21.30;83.60
2042;DHT22;1026;51.460;7.252;2023-06-10T00:16:19;21.30;83.50
2042;DHT22;1026;51.460;7.252;2023-06-10T00:18:45;21.30;83.50
2042;DHT22;1026;51.460;7.252;2023-06-10T00:21:12;21.30;84.20
2042;DHT22;1026;51.460;7.252;2023-06-10T00:23:38;21.30;83.30
2042;DHT22;1026;51.460;7.252;2023-06-10T00:26:07;21.30;83.30
2042;DHT22;1026;51.460;7.252;2023-06-10T00:28:33;21.30;83.30
2042;DHT22;1026;51.460;7.252;2023-06-10T00:30:59;21.30;83.20
2042;DHT22;1026;51.460;7.252;2023-06-10T00:33:25;21.30;83.10
2042;DHT22;1026;51.460;7.252;2023-06-10T00:35:51;21.30;83.10
2042;DHT22;1026;51.460;7.252;2023-06-10T00:38:17;21.30;83.10
2042;DHT22;1026;51.460;7.252;2023-06-10T00:40:43;21.30;83.00
2042;DHT22;1026;51.460;7.252;2023-06-10T00:43:09;21.30;83.00
2042;DHT22;1026;51.460;7.252;2023-06-10T00:45:34;21.30;83.00
2042;DHT22;1026;51.460;7.252;2023-06-10T00:48:01;21.30;82.90
2042;DHT22;1026;51.460;7.252;2023-06-10T00:50:27;21.30;83.00
2042;DHT22;1026;51.460;7.252;2023-06-10T00:52:54;21.30;82.90
2042;DHT22;1026;51.460;7.252;2023-06-10T00:55:20;21.30;82.80
2042;DHT22;1026;51.460;7.252;2023-06-10T00:57:47;21.30;82.80
2042;DHT22;1026;51.460;7.252;2023-06-10T01:00:14;21.30;82.70
2042;DHT22;1026;51.460;7.252;2023-06-10T01:02:41;21.30;82.70
2042;DHT22;1026;51.460;7.252;2023-06-10T01:05:08;21.30;82.70
2042;DHT22;1026;51.460;7.252;2023-06-10T01:07:43;21.30;82.70
2042;DHT22;1026;51.460;7.252;2023-06-10T01:12:59;21.30;82.70
2042;DHT22;1026;51.460;7.252;2023-06-10T01:15:29;21.20;82.50
2042;DHT22;1026;51.460;7.252;2023-06-10T01:18:01;21.30;82.60
2042;DHT22;1026;51.460;7.252;2023-06-10T01:20:29;21.30;82.60
2042;DHT22;1026;51.460;7.252;2023-06-10T01:22:55;21.30;82.60
2042;DHT22;1026;51.460;7.252;2023-06-10T01:25:23;21.30;82.60
2042;DHT22;1026;51.460;7.252;2023-06-10T01:27:56;21.20;82.40
2042;DHT22;1026;51.460;7.252;2023-06-10T01:30:28;21.20;82.40
2042;DHT22;1026;51.460;7.252;2023-06-10T01:32:58;21.20;82.30
2042;DHT22;1026;51.460;7.252;2023-06-10T01:35:25;21.20;82.20
2042;DHT22;1026;51.460;7.252;2023-06-10T01:37:54;21.20;82.10
2042;DHT22;1026;51.460;7.252;2023-06-10T01:40:20;21.20;82.00
2042;DHT22;1026;51.460;7.252;2023-06-10T01:42:46;21.20;81.90
2042;DHT22;1026;51.460;7.252;2023-06-10T01:45:12;21.20;81.80
2042;DHT22;1026;51.460;7.252;2023-06-10T01:47:37;21.20;81.80
2042;DHT22;1026;51.460;7.252;2023-06-10T01:50:03;21.20;81.70
2042;DHT22;1026;51.460;7.252;2023-06-10T01:52:29;21.20;81.70
2042;DHT22;1026;51.460;7.252;2023-06-10T01:54:55;21.20;81.70
2042;DHT22;1026;51.460;7.252;2023-06-10T01:57:20;21.20;81.70
2042;DHT22;1026;51.460;7.252;2023-06-10T01:59:46;21.20;81.70
2042;DHT22;1026;51.460;7.252;2023-06-10T02:02:12;21.20;81.60
2042;DHT22;1026;51.460;7.252;2023-06-10T02:04:37;21.10;81.50
2042;DHT22;1026;51.460;7.252;2023-06-10T02:07:03;21.10;81.50
2042;DHT22;1026;51.460;7.252;2023-06-10T02:09:30;21.10;81.40
2042;DHT22;1026;51.460;7.252;2023-06-10T02:11:56;21.10;81.40
2042;DHT22;1026;51.460;7.252;2023-06-10T02:14:22;21.10;81.40
2042;DHT22;1026;51.460;7.252;2023-06-10T02:16:48;21.10;81.40
2042;DHT22;1026;51.460;7.252;2023-06-10T02:19:14;21.10;81.40
2042;DHT22;1026;51.460;7.252;2023-06-10T02:21:39;21.10;81.40
2042;DHT22;1026;51.460;7.252;2023-06-10T02:24:05;21.10;81.40
2042;DHT22;1026;51.460;7.252;2023-06-10T02:26:31;21.10;81.40
2042;DHT22;1026;51.460;7.252;2023-06-10T02:28:57;21.10;81.40
2042;DHT22;1026;51.460;7.252;2023-06-10T02:31:23;21.10;81.40
2042;DHT22;1026;51.460;7.252;2023-06-10T02:33:50;21.00;81.30
2042;DHT22;1026;51.460;7.252;2023-06-10T02:36:16;21.10;81.40
2042;DHT22;1026;51.460;7.252;2023-06-10T02:38:42;21.00;81.20
2042;DHT22;1026;51.460;7.252;2023-06-10T02:41:08;21.00;81.20
2042;DHT22;1026;51.460;7.252;2023-06-10T02:43:33;21.00;81.20
2042;DHT22;1026;51.460;7.252;2023-06-10T02:45:59;21.00;81.30
2042;DHT22;1026;51.460;7.252;2023-06-10T02:48:26;21.00;81.20
2042;DHT22;1026;51.460;7.252;2023-06-10T02:51:01;21.00;81.20
2042;DHT22;1026;51.460;7.252;2023-06-10T02:53:27;21.00;81.20
2042;DHT22;1026;51.460;7.252;2023-06-10T02:55:52;21.00;81.20
2042;DHT22;1026;51.460;7.252;2023-06-10T02:58:18;21.00;81.50
2042;DHT22;1026;51.460;7.252;2023-06-10T03:00:43;20.90;81.10
2042;DHT22;1026;51.460;7.252;2023-06-10T03:03:18;20.90;81.10
2042;DHT22;1026;51.460;7.252;2023-06-10T03:05:44;20.90;81.10
2042;DHT22;1026;51.460;7.252;2023-06-10T03:08:09;20.90;81.10
2042;DHT22;1026;51.460;7.252;2023-06-10T03:10:35;20.90;81.00
2042;DHT22;1026;51.460;7.252;2023-06-10T03:13:01;20.90;81.00
2042;DHT22;1026;51.460;7.252;2023-06-10T03:15:27;20.90;81.00
2042;DHT22;1026;51.460;7.252;2023-06-10T03:17:54;20.90;80.90
2042;DHT22;1026;51.460;7.252;2023-06-10T03:20:20;20.90;81.00
2042;DHT22;1026;51.460;7.252;2023-06-10T03:22:47;20.90;81.00
2042;DHT22;1026;51.460;7.252;2023-06-10T03:25:13;20.80;80.80
2042;DHT22;1026;51.460;7.252;2023-06-10T03:27:45;20.80;80.90
2042;DHT22;1026;51.460;7.252;2023-06-10T03:30:11;20.80;80.90
2042;DHT22;1026;51.460;7.252;2023-06-10T03:32:37;20.80;80.90
2042;DHT22;1026;51.460;7.252;2023-06-10T03:35:03;20.80;80.90
2042;DHT22;1026;51.460;7.252;2023-06-10T03:37:29;20.80;80.90
2042;DHT22;1026;51.460;7.252;2023-06-10T03:39:55;20.80;80.90
2042;DHT22;1026;51.460;7.252;2023-06-10T03:42:20;20.80;80.90
2042;DHT22;1026;51.460;7.252;2023-06-10T03:44:46;20.80;81.00
2042;DHT22;1026;51.460;7.252;2023-06-10T03:47:12;20.80;81.00
2042;DHT22;1026;51.460;7.252;2023-06-10T03:49:45;20.80;81.00
2042;DHT22;1026;51.460;7.252;2023-06-10T03:52:18;20.70;80.90
2042;DHT22;1026;51.460;7.252;2023-06-10T03:54:44;20.70;80.90
2042;DHT22;1026;51.460;7.252;2023-06-10T03:57:11;20.70;80.90
2042;DHT22;1026;51.460;7.252;2023-06-10T03:59:36;20.70;80.90
2042;DHT22;1026;51.460;7.252;2023-06-10T04:02:02;20.70;80.90
2042;DHT22;1026;51.460;7.252;2023-06-10T04:04:30;20.70;80.90
2042;DHT22;1026;51.460;7.252;2023-06-10T04:06:56;20.70;80.90
2042;DHT22;1026;51.460;7.252;2023-06-10T04:09:21;20.70;80.90
2042;DHT22;1026;51.460;7.252;2023-06-10T04:11:47;20.70;80.90
2042;DHT22;1026;51.460;7.252;2023-06-10T04:14:13;20.70;80.90
2042;DHT22;1026;51.460;7.252;2023-06-10T04:16:45;20.70;81.00
2042;DHT22;1026;51.460;7.252;2023-06-10T04:19:11;20.70;80.90
2042;DHT22;1026;51.460;7.252;2023-06-10T04:21:36;20.60;80.90
2042;DHT22;1026;51.460;7.252;2023-06-10T04:24:02;20.60;80.90
2042;DHT22;1026;51.460;7.252;2023-06-10T04:26:28;20.60;80.90
2042;DHT22;1026;51.460;7.252;2023-06-10T04:28:53;20.60;81.00
2042;DHT22;1026;51.460;7.252;2023-06-10T04:31:19;20.60;80.90
2042;DHT22;1026;51.460;7.252;2023-06-10T04:33:46;20.60;80.90
2042;DHT22;1026;51.460;7.252;2023-06-10T04:36:11;20.60;81.00
2042;DHT22;1026;51.460;7.252;2023-06-10T04:38:37;20.50;80.80
2042;DHT22;1026;51.460;7.252;2023-06-10T04:41:03;20.60;80.90
2042;DHT22;1026;51.460;7.252;2023-06-10T04:43:29;20.50;80.80
2042;DHT22;1026;51.460;7.252;2023-06-10T04:45:56;20.60;80.90
2042;DHT22;1026;51.460;7.252;2023-06-10T04:48:21;20.60;80.90
2042;DHT22;1026;51.460;7.252;2023-06-10T04:50:49;20.50;80.80
2042;DHT22;1026;51.460;7.252;2023-06-10T04:53:16;20.60;80.80
2042;DHT22;1026;51.460;7.252;2023-06-10T04:55:42;20.50;80.80
2042;DHT22;1026;51.460;7.252;2023-06-10T04:58:08;20.50;80.80
2042;DHT22;1026;51.460;7.252;2023-06-10T05:00:34;20.50;80.80
2042;DHT22;1026;51.460;7.252;2023-06-10T05:03:00;20.50;80.70
2042;DHT22;1026;51.460;7.252;2023-06-10T05:05:26;20.50;80.80
2042;DHT22;1026;51.460;7.252;2023-06-10T05:07:52;20.50;80.80
2042;DHT22;1026;51.460;7.252;2023-06-10T05:10:17;20.50;80.80
2042;DHT22;1026;51.460;7.252;2023-06-10T05:12:43;20.50;80.80
2042;DHT22;1026;51.460;7.252;2023-06-10T05:15:09;20.50;80.70
2042;DHT22;1026;51.460;7.252;2023-06-10T05:17:35;20.50;80.80
2042;DHT22;1026;51.460;7.252;2023-06-10T05:20:01;20.50;80.70
2042;DHT22;1026;51.460;7.252;2023-06-10T05:22:27;20.50;80.60
2042;DHT22;1026;51.460;7.252;2023-06-10T05:24:53;20.40;80.60
2042;DHT22;1026;51.460;7.252;2023-06-10T05:27:19;20.50;80.60
2042;DHT22;1026;51.460;7.252;2023-06-10T05:29:45;20.50;80.70
2042;DHT22;1026;51.460;7.252;2023-06-10T05:32:11;20.50;80.60
2042;DHT22;1026;51.460;7.252;2023-06-10T05:34:37;20.40;80.50
2042;DHT22;1026;51.460;7.252;2023-06-10T05:37:03;20.40;80.50
2042;DHT22;1026;51.460;7.252;2023-06-10T05:39:28;20.40;80.40
2042;DHT22;1026;51.460;7.252;2023-06-10T05:41:54;20.40;80.50
2042;DHT22;1026;51.460;7.252;2023-06-10T05:44:20;20.40;81.10
2042;DHT22;1026;51.460;7.252;2023-06-10T05:46:48;20.40;80.40
2042;DHT22;1026;51.460;7.252;2023-06-10T05:49:14;20.40;80.40
2042;DHT22;1026;51.460;7.252;2023-06-10T05:51:39;20.40;80.40
2042;DHT22;1026;51.460;7.252;2023-06-10T05:54:05;20.40;80.40
2042;DHT22;1026;51.460;7.252;2023-06-10T05:56:31;20.40;80.30
2042;DHT22;1026;51.460;7.252;2023-06-10T05:58:56;20.50;80.50
2042;DHT22;1026;51.460;7.252;2023-06-10T06:01:22;20.50;80.30
2042;DHT22;1026;51.460;7.252;2023-06-10T06:03:48;20.40;80.20
2042;DHT22;1026;51.460;7.252;2023-06-10T06:06:13;20.40;80.10
2042;DHT22;1026;51.460;7.252;2023-06-10T06:08:46;20.50;80.30
2042;DHT22;1026;51.460;7.252;2023-06-10T06:11:33;20.40;80.20
2042;DHT22;1026;51.460;7.252;2023-06-10T06:14:18;20.40;80.10
2042;DHT22;1026;51.460;7.252;2023-06-10T06:16:44;20.40;80.10
2042;DHT22;1026;51.460;7.252;2023-06-10T06:19:29;20.40;80.00
2042;DHT22;1026;51.460;7.252;2023-06-10T06:21:55;20.40;80.10
2042;DHT22;1026;51.460;7.252;2023-06-10T06:24:21;20.40;80.00
2042;DHT22;1026;51.460;7.252;2023-06-10T06:26:47;20.40;80.00
2042;DHT22;1026;51.460;7.252;2023-06-10T06:29:12;20.40;80.00
2042;DHT22;1026;51.460;7.252;2023-06-10T06:31:38;20.40;79.90
2042;DHT22;1026;51.460;7.252;2023-06-10T06:34:04;20.40;80.00
2042;DHT22;1026;51.460;7.252;2023-06-10T06:36:29;20.40;80.00
2042;DHT22;1026;51.460;7.252;2023-06-10T06:38:55;20.40;80.00
2042;DHT22;1026;51.460;7.252;2023-06-10T06:41:21;20.40;79.90
2042;DHT22;1026;51.460;7.252;2023-06-10T06:43:47;20.40;79.80
2042;DHT22;1026;51.460;7.252;2023-06-10T06:46:22;20.40;80.00
2042;DHT22;1026;51.460;7.252;2023-06-10T06:48:48;20.40;79.80
2042;DHT22;1026;51.460;7.252;2023-06-10T06:51:13;20.40;79.90
2042;DHT22;1026;51.460;7.252;2023-06-10T06:53:39;20.40;79.80
2042;DHT22;1026;51.460;7.252;2023-06-10T06:56:10;20.40;79.80
2042;DHT22;1026;51.460;7.252;2023-06-10T06:58:39;20.40;79.80
2042;DHT22;1026;51.460;7.252;2023-06-10T07:01:05;20.40;80.00
2042;DHT22;1026;51.460;7.252;2023-06-10T07:03:31;20.40;79.80
2042;DHT22;1026;51.460;7.252;2023-06-10T07:05:57;20.40;79.60
2042;DHT22;1026;51.460;7.252;2023-06-10T07:08:23;20.40;79.80
2042;DHT22;1026;51.460;7.252;2023-06-10T07:10:48;20.40;79.60
2042;DHT22;1026;51.460;7.252;2023-06-10T07:13:15;20.40;79.70
2042;DHT22;1026;51.460;7.252;2023-06-10T07:15:40;20.40;79.80
2042;DHT22;1026;51.460;7.252;2023-06-10T07:18:06;20.40;79.70
2042;DHT22;1026;51.460;7.252;2023-06-10T07:20:38;20.40;79.70
2042;DHT22;1026;51.460;7.252;2023-06-10T07:23:04;20.40;79.70
2042;DHT22;1026;51.460;7.252;2023-06-10T07:25:32;20.30;79.60
2042;DHT22;1026;51.460;7.252;2023-06-10T07:27:58;20.40;79.70
2042;DHT22;1026;51.460;7.252;2023-06-10T07:30:24;20.50;79.80
2042;DHT22;1026;51.460;7.252;2023-06-10T07:32:50;20.50;79.80
2042;DHT22;1026;51.460;7.252;2023-06-10T07:35:16;20.50;79.80
2042;DHT22;1026;51.460;7.252;2023-06-10T07:37:42;20.40;79.70
2042;DHT22;1026;51.460;7.252;2023-06-10T07:40:15;20.40;79.60
2042;DHT22;1026;51.460;7.252;2023-06-10T07:42:41;20.50;79.80
2042;DHT22;1026;51.460;7.252;2023-06-10T07:45:07;20.50;79.80
2042;DHT22;1026;51.460;7.252;2023-06-10T07:47:34;20.50;79.90
2042;DHT22;1026;51.460;7.252;2023-06-10T07:50:05;20.50;79.90
2042;DHT22;1026;51.460;7.252;2023-06-10T07:52:31;20.50;80.00
2042;DHT22;1026;51.460;7.252;2023-06-10T07:54:59;20.50;79.90
2042;DHT22;1026;51.460;7.252;2023-06-10T07:57:25;20.50;80.00
2042;DHT22;1026;51.460;7.252;2023-06-10T07:59:51;20.50;80.00
2042;DHT22;1026;51.460;7.252;2023-06-10T08:02:16;20.50;80.00
2042;DHT22;1026;51.460;7.252;2023-06-10T08:04:42;20.50;80.10
2042;DHT22;1026;51.460;7.252;2023-06-10T08:07:08;20.50;80.20
2042;DHT22;1026;51.460;7.252;2023-06-10T08:09:33;20.50;80.20
2042;DHT22;1026;51.460;7.252;2023-06-10T08:12:00;20.50;80.20
2042;DHT22;1026;51.460;7.252;2023-06-10T08:14:32;20.50;80.20
2042;DHT22;1026;51.460;7.252;2023-06-10T08:17:10;20.50;80.30
2042;DHT22;1026;51.460;7.252;2023-06-10T08:19:36;20.50;80.30
2042;DHT22;1026;51.460;7.252;2023-06-10T08:22:02;20.50;80.30
2042;DHT22;1026;51.460;7.252;2023-06-10T08:24:27;20.50;80.30
2042;DHT22;1026;51.460;7.252;2023-06-10T08:26:53;20.50;80.30
2042;DHT22;1026;51.460;7.252;2023-06-10T08:29:20;20.50;80.30
2042;DHT22;1026;51.460;7.252;2023-06-10T08:31:45;20.50;80.40
2042;DHT22;1026;51.460;7.252;2023-06-10T08:34:11;20.50;80.40
2042;DHT22;1026;51.460;7.252;2023-06-10T08:36:37;20.50;80.50
2042;DHT22;1026;51.460;7.252;2023-06-10T08:39:03;20.50;80.50
2042;DHT22;1026;51.460;7.252;2023-06-10T08:41:30;20.50;80.60
2042;DHT22;1026;51.460;7.252;2023-06-10T08:44:04;20.40;80.50
2042;DHT22;1026;51.460;7.252;2023-06-10T08:46:33;20.50;80.70
2042;DHT22;1026;51.460;7.252;2023-06-10T08:49:03;20.50;80.70
2042;DHT22;1026;51.460;7.252;2023-06-10T08:51:30;20.40;80.70
2042;DHT22;1026;51.460;7.252;2023-06-10T08:54:03;20.40;80.80
2042;DHT22;1026;51.460;7.252;2023-06-10T08:56:49;20.40;80.80
2042;DHT22;1026;51.460;7.252;2023-06-10T08:59:16;20.40;80.90
2042;DHT22;1026;51.460;7.252;2023-06-10T09:01:43;20.40;81.00
2042;DHT22;1026;51.460;7.252;2023-06-10T09:04:10;20.40;81.10
2042;DHT22;1026;51.460;7.252;2023-06-10T09:06:37;20.40;81.20
2042;DHT22;1026;51.460;7.252;2023-06-10T09:09:06;20.40;81.20
2042;DHT22;1026;51.460;7.252;2023-06-10T09:11:35;20.40;81.40
2042;DHT22;1026;51.460;7.252;2023-06-10T09:14:02;20.40;81.40
2042;DHT22;1026;51.460;7.252;2023-06-10T09:16:28;20.40;81.50
2042;DHT22;1026;51.460;7.252;2023-06-10T09:18:54;20.40;81.60
2042;DHT22;1026;51.460;7.252;2023-06-10T09:21:23;20.40;81.70
2042;DHT22;1026;51.460;7.252;2023-06-10T09:23:49;20.40;81.70
2042;DHT22;1026;51.460;7.252;2023-06-10T09:26:15;20.40;81.80
2042;DHT22;1026;51.460;7.252;2023-06-10T09:28:44;20.40;81.80
2042;DHT22;1026;51.460;7.252;2023-06-10T09:31:31;20.40;81.80
2042;DHT22;1026;51.460;7.252;2023-06-10T09:34:06;20.40;81.90
2042;DHT22;1026;51.460;7.252;2023-06-10T09:36:33;20.40;82.00
2042;DHT22;1026;51.460;7.252;2023-06-10T09:38:59;20.40;82.00
2042;DHT22;1026;51.460;7.252;2023-06-10T09:41:40;20.40;82.00
2042;DHT22;1026;51.460;7.252;2023-06-10T09:44:13;20.40;82.00
2042;DHT22;1026;51.460;7.252;2023-06-10T09:46:41;20.40;82.10
2042;DHT22;1026;51.460;7.252;2023-06-10T09:49:07;20.40;82.20
2042;DHT22;1026;51.460;7.252;2023-06-10T09:51:32;20.40;82.20
2042;DHT22;1026;51.460;7.252;2023-06-10T09:53:59;20.40;82.20
2042;DHT22;1026;51.460;7.252;2023-06-10T09:56:35;20.40;82.30
2042;DHT22;1026;51.460;7.252;2023-06-10T09:59:01;20.40;82.30
2042;DHT22;1026;51.460;7.252;2023-06-10T10:01:27;20.50;82.40
2042;DHT22;1026;51.460;7.252;2023-06-10T10:03:53;20.40;82.30
2042;DHT22;1026;51.460;7.252;2023-06-10T10:06:20;20.50;82.50
2042;DHT22;1026;51.460;7.252;2023-06-10T10:08:48;20.50;82.50
2042;DHT22;1026;51.460;7.252;2023-06-10T10:11:16;20.50;82.50
2042;DHT22;1026;51.460;7.252;2023-06-10T10:13:45;20.50;82.50
2042;DHT22;1026;51.460;7.252;2023-06-10T10:16:17;20.50;82.50
2042;DHT22;1026;51.460;7.252;2023-06-10T10:18:47;20.60;82.60
2042;DHT22;1026;51.460;7.252;2023-06-10T10:21:16;20.60;82.60
2042;DHT22;1026;51.460;7.252;2023-06-10T10:24:03;20.60;82.50
2042;DHT22;1026;51.460;7.252;2023-06-10T10:26:46;20.60;82.50
2042;DHT22;1026;51.460;7.252;2023-06-10T10:29:18;20.60;82.50
2042;DHT22;1026;51.460;7.252;2023-06-10T10:31:47;20.60;82.50
2042;DHT22;1026;51.460;7.252;2023-06-10T10:34:16;20.60;82.40
2042;DHT22;1026;51.460;7.252;2023-06-10T10:36:44;20.70;82.60
2042;DHT22;1026;51.460;7.252;2023-06-10T10:39:10;20.70;82.50
2042;DHT22;1026;51.460;7.252;2023-06-10T10:41:36;20.70;82.50
2042;DHT22;1026;51.460;7.252;2023-06-10T10:44:04;20.70;82.50
2042;DHT22;1026;51.460;7.252;2023-06-10T10:46:42;20.70;82.40
2042;DHT22;1026;51.460;7.252;2023-06-10T10:49:09;20.70;82.40
2042;DHT22;1026;51.460;7.252;2023-06-10T10:51:35;20.70;82.30
2042;DHT22;1026;51.460;7.252;2023-06-10T10:54:10;20.80;82.40
2042;DHT22;1026;51.460;7.252;2023-06-10T10:56:37;20.80;82.50
2042;DHT22;1026;51.460;7.252;2023-06-10T10:59:03;20.80;82.30
2042;DHT22;1026;51.460;7.252;2023-06-10T11:01:40;20.80;82.30
2042;DHT22;1026;51.460;7.252;2023-06-10T11:04:08;20.80;82.40
2042;DHT22;1026;51.460;7.252;2023-06-10T11:06:34;20.80;82.50
2042;DHT22;1026;51.460;7.252;2023-06-10T11:09:00;20.80;82.50
2042;DHT22;1026;51.460;7.252;2023-06-10T11:11:27;20.80;82.50
2042;DHT22;1026;51.460;7.252;2023-06-10T11:14:08;20.80;82.50
2042;DHT22;1026;51.460;7.252;2023-06-10T11:16:39;20.80;82.60
2042;DHT22;1026;51.460;7.252;2023-06-10T11:19:06;20.90;82.60
2042;DHT22;1026;51.460;7.252;2023-06-10T11:24:18;20.90;82.80
2042;DHT22;1026;51.460;7.252;2023-06-10T11:26:44;20.90;82.60
2042;DHT22;1026;51.460;7.252;2023-06-10T11:29:10;20.90;82.60
2042;DHT22;1026;51.460;7.252;2023-06-10T11:34:07;20.90;82.60
2042;DHT22;1026;51.460;7.252;2023-06-10T11:36:34;20.90;82.60
2042;DHT22;1026;51.460;7.252;2023-06-10T11:39:04;21.00;82.80
2042;DHT22;1026;51.460;7.252;2023-06-10T11:41:31;20.90;82.60
2042;DHT22;1026;51.460;7.252;2023-06-10T11:44:27;21.00;82.70
2042;DHT22;1026;51.460;7.252;2023-06-10T11:46:53;21.00;82.50
2042;DHT22;1026;51.460;7.252;2023-06-10T11:49:20;21.00;82.70
2042;DHT22;1026;51.460;7.252;2023-06-10T11:51:46;21.00;82.70
2042;DHT22;1026;51.460;7.252;2023-06-10T11:54:17;21.00;82.80
2042;DHT22;1026;51.460;7.252;2023-06-10T11:56:42;21.00;82.90
2042;DHT22;1026;51.460;7.252;2023-06-10T11:59:08;21.00;83.00
2042;DHT22;1026;51.460;7.252;2023-06-10T12:01:36;21.00;82.90
2042;DHT22;1026;51.460;7.252;2023-06-10T12:04:04;21.10;83.10
2042;DHT22;1026;51.460;7.252;2023-06-10T12:06:51;21.00;83.00
2042;DHT22;1026;51.460;7.252;2023-06-10T12:09:20;21.00;83.10
2042;DHT22;1026;51.460;7.252;2023-06-10T12:11:49;21.10;83.10
2042;DHT22;1026;51.460;7.252;2023-06-10T12:14:15;21.10;83.10
2042;DHT22;1026;51.460;7.252;2023-06-10T12:16:48;21.10;83.10
2042;DHT22;1026;51.460;7.252;2023-06-10T12:19:15;21.10;82.90
2042;DHT22;1026;51.460;7.252;2023-06-10T12:21:40;21.10;83.00
2042;DHT22;1026;51.460;7.252;2023-06-10T12:24:11;21.10;83.00
2042;DHT22;1026;51.460;7.252;2023-06-10T12:26:40;21.20;83.10
2042;DHT22;1026;51.460;7.252;2023-06-10T12:29:17;21.10;82.90
2042;DHT22;1026;51.460;7.252;2023-06-10T12:32:01;21.20;83.10
2042;DHT22;1026;51.460;7.252;2023-06-10T12:36:55;21.20;83.10
2042;DHT22;1026;51.460;7.252;2023-06-10T12:39:21;21.20;83.10
2042;DHT22;1026;51.460;7.252;2023-06-10T12:41:49;21.30;83.20
2042;DHT22;1026;51.460;7.252;2023-06-10T12:44:30;21.20;83.10
2042;DHT22;1026;51.460;7.252;2023-06-10T12:46:55;21.30;83.30
2042;DHT22;1026;51.460;7.252;2023-06-10T12:49:22;21.30;83.30
2042;DHT22;1026;51.460;7.252;2023-06-10T12:51:47;21.30;83.30
2042;DHT22;1026;51.460;7.252;2023-06-10T12:54:13;21.30;83.40
2042;DHT22;1026;51.460;7.252;2023-06-10T12:56:39;21.40;83.40
2042;DHT22;1026;51.460;7.252;2023-06-10T12:59:05;21.40;83.30
2042;DHT22;1026;51.460;7.252;2023-06-10T13:01:31;21.40;83.30
2042;DHT22;1026;51.460;7.252;2023-06-10T13:03:58;21.40;83.40
2042;DHT22;1026;51.460;7.252;2023-06-10T13:06:23;21.40;83.50
2042;DHT22;1026;51.460;7.252;2023-06-10T13:08:49;21.50;83.70
2042;DHT22;1026;51.460;7.252;2023-06-10T13:11:16;21.50;83.50
2042;DHT22;1026;51.460;7.252;2023-06-10T13:13:42;21.50;83.50
2042;DHT22;1026;51.460;7.252;2023-06-10T13:16:08;21.50;83.50
2042;DHT22;1026;51.460;7.252;2023-06-10T13:18:34;21.50;83.40
2042;DHT22;1026;51.460;7.252;2023-06-10T13:21:08;21.50;83.40
2042;DHT22;1026;51.460;7.252;2023-06-10T13:23:34;21.60;83.40
2042;DHT22;1026;51.460;7.252;2023-06-10T13:26:00;21.60;83.50
2042;DHT22;1026;51.460;7.252;2023-06-10T13:28:28;21.60;83.70
2042;DHT22;1026;51.460;7.252;2023-06-10T13:30:54;21.60;83.80
2042;DHT22;1026;51.460;7.252;2023-06-10T13:33:19;21.60;83.80
2042;DHT22;1026;51.460;7.252;2023-06-10T13:35:50;21.60;83.80
2042;DHT22;1026;51.460;7.252;2023-06-10T13:38:15;21.60;83.70
2042;DHT22;1026;51.460;7.252;2023-06-10T13:40:41;21.60;83.80
2042;DHT22;1026;51.460;7.252;2023-06-10T13:43:06;21.70;84.00
2042;DHT22;1026;51.460;7.252;2023-06-10T13:45:33;21.70;84.10
2042;DHT22;1026;51.460;7.252;2023-06-10T13:47:59;21.70;84.10
2042;DHT22;1026;51.460;7.252;2023-06-10T13:50:25;21.60;84.00
2042;DHT22;1026;51.460;7.252;2023-06-10T13:52:51;21.70;84.20
2042;DHT22;1026;51.460;7.252;2023-06-10T13:55:16;21.70;84.10
2042;DHT22;1026;51.460;7.252;2023-06-10T13:58:02;21.70;84.10
2042;DHT22;1026;51.460;7.252;2023-06-10T14:00:28;21.80;84.30
2042;DHT22;1026;51.460;7.252;2023-06-10T14:02:54;21.80;84.30
2042;DHT22;1026;51.460;7.252;2023-06-10T14:05:20;21.80;84.40
2042;DHT22;1026;51.460;7.252;2023-06-10T14:07:50;21.80;84.50
2042;DHT22;1026;51.460;7.252;2023-06-10T14:10:16;21.80;84.60
2042;DHT22;1026;51.460;7.252;2023-06-10T14:12:41;21.80;84.60
2042;DHT22;1026;51.460;7.252;2023-06-10T14:15:07;21.90;84.60
2042;DHT22;1026;51.460;7.252;2023-06-10T14:17:33;21.90;84.60
2042;DHT22;1026;51.460;7.252;2023-06-10T14:19:59;21.90;84.60
2042;DHT22;1026;51.460;7.252;2023-06-10T14:22:27;21.90;84.60
2042;DHT22;1026;51.460;7.252;2023-06-10T14:24:53;21.90;84.60
2042;DHT22;1026;51.460;7.252;2023-06-10T14:27:18;21.90;84.60
2042;DHT22;1026;51.460;7.252;2023-06-10T14:29:45;22.00;84.70
2042;DHT22;1026;51.460;7.252;2023-06-10T14:32:11;22.00;84.70
2042;DHT22;1026;51.460;7.252;2023-06-10T14:34:36;22.00;85.60
2042;DHT22;1026;51.460;7.252;2023-06-10T14:37:02;21.90;84.70
2042;DHT22;1026;51.460;7.252;2023-06-10T14:39:32;22.00;84.70
2042;DHT22;1026;51.460;7.252;2023-06-10T14:41:58;22.00;84.70
2042;DHT22;1026;51.460;7.252;2023-06-10T14:44:23;22.10;84.80
2042;DHT22;1026;51.460;7.252;2023-06-10T14:46:49;22.00;84.70
2042;DHT22;1026;51.460;7.252;2023-06-10T14:49:15;22.10;84.80
2042;DHT22;1026;51.460;7.252;2023-06-10T14:51:40;22.10;84.80
2042;DHT22;1026;51.460;7.252;2023-06-10T14:54:06;22.10;84.70
2042;DHT22;1026;51.460;7.252;2023-06-10T14:56:32;22.10;84.70
2042;DHT22;1026;51.460;7.252;2023-06-10T14:59:03;22.10;84.80
2042;DHT22;1026;51.460;7.252;2023-06-10T15:01:28;22.10;84.80
2042;DHT22;1026;51.460;7.252;2023-06-10T15:03:54;22.10;84.50
2042;DHT22;1026;51.460;7.252;2023-06-10T15:06:20;22.10;84.60
2042;DHT22;1026;51.460;7.252;2023-06-10T15:08:48;22.10;84.60
2042;DHT22;1026;51.460;7.252;2023-06-10T15:11:14;22.10;84.70
2042;DHT22;1026;51.460;7.252;2023-06-10T15:13:40;22.10;84.90
2042;DHT22;1026;51.460;7.252;2023-06-10T15:16:06;22.20;85.00
2042;DHT22;1026;51.460;7.252;2023-06-10T15:18:32;22.20;85.00
2042;DHT22;1026;51.460;7.252;2023-06-10T15:20:57;22.20;85.10
2042;DHT22;1026;51.460;7.252;2023-06-10T15:23:23;22.20;85.20
2042;DHT22;1026;51.460;7.252;2023-06-10T15:25:49;22.20;85.10
2042;DHT22;1026;51.460;7.252;2023-06-10T15:28:14;22.20;85.10
2042;DHT22;1026;51.460;7.252;2023-06-10T15:30:40;22.20;85.20
2042;DHT22;1026;51.460;7.252;2023-06-10T15:33:06;22.20;85.10
2042;DHT22;1026;51.460;7.252;2023-06-10T15:35:32;22.20;85.00
2042;DHT22;1026;51.460;7.252;2023-06-10T15:37:58;22.20;85.00
2042;DHT22;1026;51.460;7.252;2023-06-10T15:40:24;22.20;85.20
2042;DHT22;1026;51.460;7.252;2023-06-10T15:42:49;22.20;85.30
2042;DHT22;1026;51.460;7.252;2023-06-10T15:45:15;22.30;85.30
2042;DHT22;1026;51.460;7.252;2023-06-10T15:47:41;22.30;85.30
2042;DHT22;1026;51.460;7.252;2023-06-10T15:50:10;22.30;85.40
2042;DHT22;1026;51.460;7.252;2023-06-10T15:52:42;22.30;86.40
2042;DHT22;1026;51.460;7.252;2023-06-10T15:55:08;22.30;85.80
2042;DHT22;1026;51.460;7.252;2023-06-10T15:57:34;22.20;85.70
2042;DHT22;1026;51.460;7.252;2023-06-10T16:00:00;22.30;85.80
2042;DHT22;1026;51.460;7.252;2023-06-10T16:02:25;22.30;85.80
2042;DHT22;1026;51.460;7.252;2023-06-10T16:04:51;22.30;84.40
2042;DHT22;1026;51.460;7.252;2023-06-10T16:07:17;22.30;82.50
2042;DHT22;1026;51.460;7.252;2023-06-10T16:09:42;22.30;82.30
2042;DHT22;1026;51.460;7.252;2023-06-10T16:12:08;22.30;82.30
2042;DHT22;1026;51.460;7.252;2023-06-10T16:14:34;22.40;82.50